Vilas, North Carolina
Current Conditions -  °F | °C
As of 5:55 PM on Thursday 27 Nov 2014 (Local Time) from KTNB Reporting Station
Light Snow Light Snow  
Wind Chill: 16°   Ceiling: 800
Heat Index: 28°   Visibility: 1.7mi
Dew Point: 26°   Wind: 15mph
Humidity: 95%   Direction: 310°NW
Pressure: 30.13"   Gusts: 23mph
Location:  36.25°N, 81.77°W
Report Text: KTNB 272255Z AUTO 31013G20KT 1 3/4SM -SN BKN008 OVC014 M02/M03 A3013 RMK AO2 T10251032
Loading
Personal Weather Stations






























Interactive Weather Map New forecast layout! Learn more

10-Day Weather Forecast

Advertisements
Track Severe Weather on mobile